Time;durP1;ratioP1;P1;durP2;ratioP2;P2;SDS_P1;SDS_P2;PMS_P1;PMS_P2;Temp;Humidity;BMP_temperature;BMP_pressure;BME280_temperature;BME280_humidity;BME280_pressure;Samples;Min_cycle;Max_cycle;Signal;HPM_P1;HPM_P2
2022/01/23 00:00:51;;;;;;;6.90;3.22;;;;;;;-2.24;63.96;101507.39;1775178;80;26114;-63
2022/01/23 00:03:19;;;;;;;5.85;3.20;;;;;;;-2.20;64.13;101515.16;1703253;82;25753;-63
2022/01/23 00:05:51;;;;;;;11.40;3.25;;;;;;;-2.14;63.76;101515.94;1674331;85;27508;-63
2022/01/23 00:08:23;;;;;;;5.53;3.47;;;;;;;-2.13;63.87;101519.84;1703503;82;25726;-65
2022/01/23 00:10:52;;;;;;;5.67;3.50;;;;;;;-2.19;63.86;101522.64;1729132;82;25772;-63
2022/01/23 00:13:28;;;;;;;7.67;3.47;;;;;;;-2.20;64.13;101521.75;1769117;80;26121;-62
2022/01/23 00:18:39;;;;;;;9.63;3.83;;;;;;;-2.27;64.04;101523.27;1808132;79;27695;-63
2022/01/23 00:21:06;;;;;;;5.75;3.20;;;;;;;-2.29;64.05;101519.80;1765229;79;25749;-63
2022/01/23 00:31:43;;;;;;;7.78;3.45;;;;;;;-2.29;64.44;101519.80;1776084;80;28293;-63
2022/01/23 00:34:10;;;;;;;7.95;4.85;;;;;;;-2.28;63.97;101521.53;1775873;80;25804;-62
2022/01/23 00:36:38;;;;;;;8.30;3.30;;;;;;;-2.32;63.99;101527.33;1775536;80;25717;-62
2022/01/23 00:39:06;;;;;;;9.13;3.75;;;;;;;-2.30;64.06;101535.19;1775178;80;26845;-63
2022/01/23 00:41:32;;;;;;;7.12;3.75;;;;;;;-2.31;63.96;101525.11;1787754;79;25732;-63
2022/01/23 00:44:00;;;;;;;6.75;3.95;;;;;;;-2.34;64.28;101526.48;1738785;81;26736;-63
2022/01/23 00:46:34;;;;;;;7.00;3.92;;;;;;;-2.35;64.14;101532.66;1745479;81;25746;-64
2022/01/23 00:51:34;;;;;;;6.20;3.90;;;;;;;-2.50;64.94;101536.95;1745439;81;26146;-63
2022/01/23 00:54:05;;;;;;;8.15;3.95;;;;;;;-2.57;65.06;101533.15;1749804;81;25479;-63
2022/01/23 00:56:33;;;;;;;8.93;3.55;;;;;;;-2.63;65.49;101531.94;1751281;81;27450;-63
2022/01/23 00:59:03;;;;;;;7.30;4.10;;;;;;;-2.67;65.75;101529.83;1751380;81;25792;-63
2022/01/23 01:01:33;;;;;;;8.20;4.25;;;;;;;-2.70;65.56;101531.66;1781684;78;25808;-63
2022/01/23 01:04:00;;;;;;;10.15;4.55;;;;;;;-2.69;65.39;101530.77;1786058;79;26835;-63
2022/01/23 01:06:27;;;;;;;10.13;4.30;;;;;;;-2.68;65.53;101531.19;1769705;80;25724;-63
2022/01/23 01:09:01;;;;;;;5.80;3.42;;;;;;;-2.69;65.56;101526.34;1773731;80;27458;-63
2022/01/23 01:16:52;;;;;;;8.18;3.98;;;;;;;-2.67;65.65;101518.44;1774185;80;26891;-62
2022/01/23 01:33:05;;;;;;;6.12;4.20;;;;;;;-2.63;64.70;101527.98;1782584;80;26302;-64
2022/01/23 01:35:29;;;;;;;5.60;3.22;;;;;;;-2.69;64.97;101517.13;1769216;79;27705;-63
2022/01/23 01:37:51;;;;;;;4.92;3.50;;;;;;;-2.71;65.14;101514.13;1780598;80;25821;-64
2022/01/23 01:40:20;;;;;;;6.15;3.83;;;;;;;-2.71;65.24;101519.39;1782248;80;25655;-63
2022/01/23 01:42:48;;;;;;;7.47;4.35;;;;;;;-2.72;64.86;101513.27;1812621;79;26122;-64
2022/01/23 01:45:30;;;;;;;7.72;3.87;;;;;;;-2.70;65.21;101511.91;1814583;78;25721;-63
2022/01/23 01:48:04;;;;;;;9.23;5.20;;;;;;;-2.67;65.11;101511.85;1813352;78;27547;-62
2022/01/23 01:50:34;;;;;;;8.10;5.08;;;;;;;-2.65;65.24;101511.37;1789652;79;25832;-61
2022/01/23 01:53:11;;;;;;;7.37;4.03;;;;;;;-2.68;65.36;101512.28;1813536;78;26222;-62
2022/01/23 01:55:47;;;;;;;10.08;4.33;;;;;;;-2.65;65.14;101512.69;1816983;78;26082;-62
2022/01/23 02:02:46;;;;;;;9.30;5.08;;;;;;;-2.64;66.37;101515.72;1799046;78;27542;-61
2022/01/23 02:09:44;;;;;;;13.95;5.55;;;;;;;-2.93;69.15;101504.05;1785893;78;26182;-62
2022/01/23 02:14:37;;;;;;;13.60;6.22;;;;;;;-3.01;68.97;101508.61;1780530;80;27475;-62
2022/01/23 02:25:42;;;;;;;10.58;6.15;;;;;;;-2.93;69.79;101505.38;1714478;82;26409;-63
2022/01/23 02:52:54;;;;;;;12.10;6.30;;;;;;;-3.13;72.98;101504.89;1802858;79;25759;-62
2022/01/23 02:55:24;;;;;;;14.20;6.20;;;;;;;-3.12;73.18;101498.73;1767824;80;33365;-62
2022/01/23 03:00:19;;;;;;;9.75;6.20;;;;;;;-3.13;73.70;101491.73;1802174;79;25701;-62
2022/01/23 03:03:01;;;;;;;11.12;6.47;;;;;;;-3.13;73.53;101489.11;1737923;80;26098;-63
2022/01/23 03:08:04;;;;;;;13.13;7.03;;;;;;;-3.11;73.78;101489.95;1776268;80;27519;-63
2022/01/23 03:10:37;;;;;;;12.60;6.83;;;;;;;-3.12;74.30;101494.79;1775083;80;25726;-63
2022/01/23 03:24:09;;;;;;;13.08;7.15;;;;;;;-3.15;73.59;101487.36;1805897;79;25915;-63
2022/01/23 03:31:33;;;;;;;15.15;8.45;;;;;;;-3.19;73.97;101481.77;1736468;82;25819;-63
2022/01/23 03:33:57;;;;;;;16.53;7.70;;;;;;;-3.21;74.19;101480.92;1710518;83;27540;-63
2022/01/23 03:36:25;;;;;;;17.07;7.42;;;;;;;-3.20;74.10;101503.71;1710380;83;25836;-63
2022/01/23 03:38:52;;;;;;;18.32;9.05;;;;;;;-3.25;74.55;101491.07;1710621;83;25818;-62
2022/01/23 03:41:20;;;;;;;20.32;8.38;;;;;;;-3.24;74.08;101495.44;1728179;82;26933;-63
2022/01/23 03:43:47;;;;;;;15.95;7.62;;;;;;;-3.24;74.70;101498.53;1738029;81;25723;-62
2022/01/23 03:46:48;;;;;;;18.10;7.50;;;;;;;-3.25;74.51;101500.28;1776227;80;27394;-62
2022/01/23 03:51:53;;;;;;;16.73;8.48;;;;;;;-3.23;74.40;101495.86;1750675;81;25629;-63
2022/01/23 03:54:20;;;;;;;13.05;7.50;;;;;;;-3.24;74.41;101509.06;1748330;81;26122;-64
2022/01/23 03:56:47;;;;;;;14.65;6.65;;;;;;;-3.22;74.44;101501.55;1745806;82;25774;-64
2022/01/23 03:59:14;;;;;;;14.43;7.97;;;;;;;-3.23;74.85;101502.44;1746024;82;27538;-64
2022/01/23 04:01:43;;;;;;;14.78;7.50;;;;;;;-3.24;74.74;101503.34;1745220;82;25818;-64
2022/01/23 04:04:26;;;;;;;12.93;6.62;;;;;;;-3.24;74.77;101500.70;1744866;82;26035;-64
2022/01/23 04:06:39;;;;;;;18.32;8.43;;;;;;;-3.27;75.01;101512.59;1741449;82;26074;-65
2022/01/23 04:09:09;;;;;;;15.05;6.92;;;;;;;-3.30;75.01;101508.73;1745748;82;25592;-63
2022/01/23 04:11:38;;;;;;;17.07;7.65;;;;;;;-3.28;75.20;101511.32;1745568;82;27468;-63
2022/01/23 04:14:08;;;;;;;14.20;7.40;;;;;;;-3.26;74.54;101508.22;1745743;82;25821;-63
2022/01/23 04:19:14;;;;;;;12.95;6.97;;;;;;;-3.32;75.55;101521.89;1745830;81;26111;-63
2022/01/23 04:46:04;;;;;;;15.48;8.05;;;;;;;-3.41;75.79;101529.98;1740531;82;26118;-63
2022/01/23 04:59:41;;;;;;;13.62;7.10;;;;;;;-3.42;76.47;101530.88;1685500;85;26707;-62
2022/01/23 05:04:38;;;;;;;13.72;7.62;;;;;;;-3.43;76.68;101546.67;1705271;81;27685;-62
2022/01/23 05:07:28;;;;;;;12.25;6.58;;;;;;;-3.44;76.42;101531.34;1753723;81;25711;-63
2022/01/23 05:09:54;;;;;;;23.75;11.38;;;;;;;-3.46;76.76;101520.86;1733566;81;25723;-62
2022/01/23 05:12:26;;;;;;;14.20;7.45;;;;;;;-3.44;76.71;101528.72;1753169;81;26234;-62
2022/01/23 05:14:52;;;;;;;14.50;8.83;;;;;;;-3.42;76.73;101529.98;1753528;81;25861;-64
2022/01/23 05:17:19;;;;;;;15.08;8.50;;;;;;;-3.42;76.60;101524.73;1753848;81;27498;-63
2022/01/23 05:19:48;;;;;;;16.75;8.58;;;;;;;-3.39;76.26;101529.48;1753665;81;25789;-63
2022/01/23 05:24:48;;;;;;;16.50;7.92;;;;;;;-3.36;76.16;101529.44;1787085;79;26136;-63
2022/01/23 05:27:11;;;;;;;13.50;7.12;;;;;;;-3.36;75.95;101524.64;1768126;80;25769;-63
2022/01/23 05:29:38;;;;;;;15.25;7.55;;;;;;;-3.37;76.42;101529.48;1780751;79;27479;-63
2022/01/23 05:32:10;;;;;;;15.48;6.53;;;;;;;-3.41;76.65;101525.16;1778244;80;25994;-64
2022/01/23 05:34:39;;;;;;;15.23;6.97;;;;;;;-3.44;76.60;101529.14;1782436;80;25768;-64
2022/01/23 05:37:08;;;;;;;12.45;7.53;;;;;;;-3.46;76.66;101526.13;1783474;80;26065;-63
2022/01/23 05:39:37;;;;;;;16.87;6.62;;;;;;;-3.46;76.49;101527.44;1784966;80;25865;-63
2022/01/23 05:42:07;;;;;;;16.15;7.12;;;;;;;-3.43;76.31;101524.30;1804247;78;27494;-64
2022/01/23 05:44:39;;;;;;;13.10;7.00;;;;;;;-3.43;76.44;101526.50;1814472;79;25848;-63
2022/01/23 05:47:12;;;;;;;18.12;7.28;;;;;;;-3.45;76.39;101520.40;1814711;79;25652;-63
2022/01/23 05:49:56;;;;;;;12.47;6.53;;;;;;;-3.42;76.38;101524.73;1814080;78;26120;-63
2022/01/23 05:52:34;;;;;;;16.55;6.97;;;;;;;-3.42;76.17;101523.41;1758807;78;25490;-63
2022/01/23 05:55:08;;;;;;;15.38;7.72;;;;;;;-3.43;76.62;101529.56;1810256;78;27489;-63
2022/01/23 05:57:49;;;;;;;10.82;6.53;;;;;;;-3.41;76.15;101540.94;1810176;79;25680;-64
2022/01/23 06:00:23;;;;;;;19.10;7.37;;;;;;;-3.42;76.70;101536.56;1774504;79;25825;-63
2022/01/23 06:02:53;;;;;;;12.45;7.47;;;;;;;-3.47;77.03;101539.28;1775660;80;26068;-63
2022/01/23 06:05:24;;;;;;;13.35;7.20;;;;;;;-3.48;77.13;101546.75;1774265;79;25731;-63
2022/01/23 06:07:52;;;;;;;18.65;9.03;;;;;;;-3.50;77.06;101542.84;1743353;82;29857;-63
2022/01/23 06:10:26;;;;;;;15.45;7.97;;;;;;;-3.50;77.42;101551.20;1769360;81;25743;-62
2022/01/23 06:12:55;;;;;;;12.28;6.70;;;;;;;-3.51;77.53;101546.83;1769669;80;25700;-62
2022/01/23 06:15:22;;;;;;;16.00;7.80;;;;;;;-3.48;77.73;101546.32;1769428;81;26095;-63
2022/01/23 06:17:49;;;;;;;23.30;10.38;;;;;;;-3.49;77.72;101551.59;1745024;82;25437;-63
2022/01/23 06:20:35;;;;;;;13.70;8.35;;;;;;;-3.45;77.38;101551.97;1769744;81;27538;-63
2022/01/23 06:23:17;;;;;;;14.38;7.58;;;;;;;-3.41;77.58;101559.36;1730081;82;26050;-64
2022/01/23 06:25:49;;;;;;;14.73;7.30;;;;;;;-3.39;77.48;101562.83;1746075;82;25733;-63
2022/01/23 06:28:45;;;;;;;14.53;7.83;;;;;;;-3.35;77.32;101568.02;1731049;81;26174;-63
2022/01/23 06:31:12;;;;;;;14.78;7.80;;;;;;;-3.32;76.99;101557.41;1773174;80;25961;-63
2022/01/23 06:33:44;;;;;;;16.35;8.63;;;;;;;-3.25;77.05;101559.49;1776165;80;27472;-62
2022/01/23 06:36:11;;;;;;;17.10;8.68;;;;;;;-3.19;76.88;101565.98;1780776;80;25987;-63
2022/01/23 06:38:38;;;;;;;16.97;8.15;;;;;;;-3.11;76.52;101561.88;1780619;80;25784;-64
2022/01/23 06:41:06;;;;;;;16.62;7.72;;;;;;;-3.08;76.32;101563.14;1786335;79;26050;-63
2022/01/23 06:43:40;;;;;;;15.53;8.90;;;;;;;-3.09;76.13;101562.72;1802704;79;25482;-63
2022/01/23 06:46:15;;;;;;;16.82;7.62;;;;;;;-3.04;75.90;101563.48;1799353;79;27526;-63
2022/01/23 06:48:42;;;;;;;18.55;8.60;;;;;;;-2.97;75.83;101566.88;1781875;79;25816;-63
2022/01/23 06:51:11;;;;;;;13.98;6.92;;;;;;;-2.95;75.37;101565.52;1765553;81;25731;-64
2022/01/23 06:53:39;;;;;;;15.53;7.45;;;;;;;-2.90;75.22;101572.43;1804042;79;26131;-64
2022/01/23 06:56:06;;;;;;;19.98;7.85;;;;;;;-2.83;75.07;101570.55;1774750;80;26086;-64
2022/01/23 06:58:32;;;;;;;11.40;7.33;;;;;;;-2.74;74.93;101573.00;1749464;82;27475;-64
2022/01/23 07:01:01;;;;;;;15.83;7.03;;;;;;;-2.63;74.74;101569.28;1776665;79;25801;-64
2022/01/23 07:03:30;;;;;;;15.25;7.75;;;;;;;-2.58;74.55;101566.98;1748270;82;25760;-64
2022/01/23 07:05:59;;;;;;;13.13;6.28;;;;;;;-2.52;74.37;101567.30;1776691;80;26087;-64
2022/01/23 07:08:44;;;;;;;14.00;8.03;;;;;;;-2.47;74.10;101572.01;1750027;82;25964;-64
2022/01/23 07:11:31;;;;;;;11.68;6.90;;;;;;;-2.39;73.67;101574.49;1776729;79;28024;-63
2022/01/23 07:14:19;;;;;;;14.63;7.28;;;;;;;-2.36;73.51;101580.99;1749498;82;25897;-63
2022/01/23 07:16:50;;;;;;;15.13;7.35;;;;;;;-2.27;73.33;101576.84;1774193;80;25768;-63
2022/01/23 07:19:21;;;;;;;12.23;6.50;;;;;;;-2.17;73.09;101588.50;1744944;82;26113;-63
2022/01/23 07:21:50;;;;;;;10.55;5.78;;;;;;;-2.06;73.16;101592.62;1749185;82;25698;-64
2022/01/23 07:24:17;;;;;;;14.00;6.62;;;;;;;-1.99;72.80;101590.72;1776576;80;27503;-63
2022/01/23 07:26:45;;;;;;;13.85;7.37;;;;;;;-1.96;72.22;101585.39;1749873;82;25651;-62
2022/01/23 07:29:12;;;;;;;16.45;7.50;;;;;;;-1.86;72.29;101587.34;1792307;79;25820;-62
2022/01/23 07:31:57;;;;;;;14.75;6.78;;;;;;;-1.82;71.77;101591.66;1788897;79;26149;-62
2022/01/23 07:34:13;;;;;;;16.32;7.05;;;;;;;-1.75;71.78;101587.96;1711155;83;25719;-63
2022/01/23 07:36:40;;;;;;;14.98;6.97;;;;;;;-1.72;71.06;101595.39;1775975;80;27526;-62
2022/01/23 07:39:09;;;;;;;14.07;6.67;;;;;;;-1.67;71.21;101594.81;1770499;80;26432;-62
2022/01/23 07:41:38;;;;;;;12.78;6.60;;;;;;;-1.62;70.94;101593.80;1778018;79;25779;-62
2022/01/23 07:44:07;;;;;;;13.80;6.55;;;;;;;-1.58;70.76;101598.12;1771191;80;26113;-62
2022/01/23 07:46:51;;;;;;;13.10;6.90;;;;;;;-1.53;70.28;101599.76;1773861;79;25786;-62
2022/01/23 07:49:23;;;;;;;15.30;6.17;;;;;;;-1.43;70.44;101602.13;1749524;80;27604;-62
2022/01/23 07:51:52;;;;;;;12.63;7.33;;;;;;;-1.38;69.93;101609.92;1766939;80;25768;-62
2022/01/23 07:54:22;;;;;;;17.15;6.33;;;;;;;-1.37;69.53;101610.81;1776110;80;25478;-62
2022/01/23 07:56:51;;;;;;;16.20;6.40;;;;;;;-1.27;69.72;101604.39;1774083;80;26131;-63
2022/01/23 07:59:38;;;;;;;12.68;5.92;;;;;;;-1.15;69.39;101608.48;1689216;84;25819;-62
2022/01/23 08:02:17;;;;;;;12.18;7.08;;;;;;;-1.10;68.60;101603.93;1734705;80;27482;-62
2022/01/23 08:05:09;;;;;;;12.30;7.17;;;;;;;-0.99;68.57;101599.23;1738581;82;25752;-63
2022/01/23 08:07:36;;;;;;;11.20;6.00;;;;;;;-0.85;68.08;101606.79;1776852;80;25697;-63
2022/01/23 08:10:15;;;;;;;11.53;6.97;;;;;;;-0.83;67.79;101603.66;1775457;80;26880;-63
2022/01/23 08:12:42;;;;;;;16.80;7.15;;;;;;;-0.76;68.21;101610.94;1776443;80;26230;-62
2022/01/23 08:15:10;;;;;;;14.18;6.72;;;;;;;-0.76;67.45;101606.97;1776495;80;28322;-63
2022/01/23 08:17:41;;;;;;;12.98;6.55;;;;;;;-0.77;67.35;101618.91;1739253;81;25777;-63
2022/01/23 08:20:09;;;;;;;11.35;6.20;;;;;;;-0.80;66.98;101614.59;1775479;80;25804;-64
2022/01/23 08:22:38;;;;;;;10.15;6.03;;;;;;;-0.78;67.42;101622.02;1774005;79;26121;-64
2022/01/23 08:25:06;;;;;;;10.32;6.00;;;;;;;-0.74;67.23;101618.38;1788352;79;25760;-63
2022/01/23 08:27:34;;;;;;;12.60;6.92;;;;;;;-0.72;67.20;101627.13;1775235;80;27578;-63
2022/01/23 08:30:04;;;;;;;12.13;6.67;;;;;;;-0.71;67.04;101630.19;1738958;82;25709;-63
2022/01/23 08:32:31;;;;;;;15.83;7.10;;;;;;;-0.79;66.51;101635.67;1717971;83;25693;-63
2022/01/23 08:35:01;;;;;;;13.10;6.62;;;;;;;-1.01;65.77;101639.34;1776801;80;26500;-64
2022/01/23 08:37:29;;;;;;;11.85;6.72;;;;;;;-1.04;66.41;101638.13;1776044;80;25747;-62
2022/01/23 08:40:00;;;;;;;9.93;5.75;;;;;;;-1.02;66.91;101647.31;1774554;80;27439;-62
2022/01/23 08:42:27;;;;;;;11.00;5.97;;;;;;;-0.99;66.96;101648.56;1743194;81;25783;-62
2022/01/23 08:44:54;;;;;;;15.20;6.72;;;;;;;-0.93;66.91;101651.47;1749789;80;25681;-62
2022/01/23 08:47:22;;;;;;;11.83;6.03;;;;;;;-0.90;66.89;101650.08;1776202;78;26106;-63
2022/01/23 08:49:51;;;;;;;16.20;6.72;;;;;;;-0.90;66.94;101650.97;1753867;80;25708;-63
2022/01/23 08:52:21;;;;;;;11.97;6.17;;;;;;;-0.81;67.05;101657.77;1767726;81;27489;-64
2022/01/23 08:54:56;;;;;;;11.03;5.72;;;;;;;-0.79;66.88;101656.81;1734411;82;25827;-62
2022/01/23 08:57:21;;;;;;;11.20;5.30;;;;;;;-0.73;66.88;101656.25;1709148;83;25778;-63
2022/01/23 08:59:49;;;;;;;9.40;6.08;;;;;;;-0.68;66.73;101656.98;1769487;80;26496;-61
2022/01/23 09:02:20;;;;;;;10.95;6.05;;;;;;;-0.61;67.01;101660.33;1776013;80;25818;-63
2022/01/23 09:04:47;;;;;;;17.52;6.53;;;;;;;-0.54;66.84;101649.98;1772847;80;27504;-62
2022/01/23 09:07:14;;;;;;;14.23;5.50;;;;;;;-0.57;66.62;101661.52;1768172;80;25705;-63
2022/01/23 09:09:42;;;;;;;9.30;5.83;;;;;;;-0.52;66.81;101650.35;1774949;79;25825;-64
2022/01/23 09:14:43;;;;;;;13.60;6.90;;;;;;;-0.46;66.75;101659.03;1765899;79;25804;-64
2022/01/23 09:17:13;;;;;;;9.18;5.12;;;;;;;-0.42;66.60;101661.98;1752424;80;27413;-64
2022/01/23 09:19:40;;;;;;;12.15;6.62;;;;;;;-0.38;66.01;101649.96;1773712;78;25804;-62
2022/01/23 09:22:09;;;;;;;10.63;5.60;;;;;;;-0.39;65.86;101660.59;1751707;80;26340;-63
2022/01/23 09:24:35;;;;;;;10.35;5.60;;;;;;;-0.36;65.59;101648.62;1750809;80;26141;-63
2022/01/23 09:27:04;;;;;;;12.05;6.25;;;;;;;-0.30;65.14;101641.81;1787002;78;25710;-63
2022/01/23 09:29:39;;;;;;;9.03;5.47;;;;;;;-0.37;65.30;101653.02;1784354;79;28085;-64
2022/01/23 09:32:10;;;;;;;;;;;;;;;-0.32;65.36;101643.63;1774141;79;25810;-64
2022/01/23 09:34:38;;;;;;;8.70;5.12;;;;;;;-0.26;64.93;101642.59;1779453;79;25836;-64
2022/01/23 09:37:09;;;;;;;11.50;5.75;;;;;;;-0.12;64.91;101646.16;1753651;80;26086;-64
2022/01/23 09:39:38;;;;;;;10.20;5.60;;;;;;;0.09;64.26;101648.13;1789099;79;25712;-65
2022/01/23 09:42:15;;;;;;;9.70;5.72;;;;;;;0.32;63.73;101642.59;1806565;79;28296;-63
2022/01/23 09:44:53;;;;;;;14.18;4.67;;;;;;;0.59;62.82;101646.59;1765875;81;25811;-64
2022/01/23 09:47:23;;;;;;;9.65;4.85;;;;;;;0.79;60.92;101632.67;1738101;82;25717;-63
2022/01/23 09:49:54;;;;;;;11.85;5.80;;;;;;;0.62;61.39;101639.41;1710045;81;25870;-63
2022/01/23 09:52:22;;;;;;;10.05;4.90;;;;;;;0.53;61.79;101637.06;1724491;82;25836;-64
2022/01/23 09:54:57;;;;;;;10.88;4.97;;;;;;;0.43;60.74;101636.95;1777563;80;27485;-63
2022/01/23 09:57:25;;;;;;;7.15;5.10;;;;;;;0.16;60.94;101644.84;1775200;79;25666;-64
2022/01/23 09:59:58;;;;;;;7.70;4.10;;;;;;;-0.06;61.44;101648.60;1775990;80;25778;-64
2022/01/23 10:02:26;;;;;;;9.48;4.83;;;;;;;-0.21;61.66;101652.56;1756321;80;26113;-64
2022/01/23 10:04:54;;;;;;;6.50;4.42;;;;;;;-0.32;62.05;101654.21;1734758;82;25970;-63
2022/01/23 10:07:24;;;;;;;12.78;5.67;;;;;;;-0.43;62.50;101655.84;1694171;82;27510;-63
2022/01/23 10:09:54;;;;;;;9.58;4.62;;;;;;;-0.47;62.92;101652.86;1697825;83;25899;-63
2022/01/23 10:12:26;;;;;;;7.97;4.90;;;;;;;-0.60;63.25;101655.45;1691395;82;25800;-63
2022/01/23 10:14:57;;;;;;;10.15;5.45;;;;;;;-0.62;63.75;101658.59;1734280;82;26107;-63
2022/01/23 10:17:24;;;;;;;9.78;4.85;;;;;;;-0.64;63.97;101658.17;1774841;80;25728;-63
2022/01/23 10:19:51;;;;;;;10.20;5.75;;;;;;;-0.58;64.10;101657.61;1769257;80;27474;-63
2022/01/23 10:22:18;;;;;;;9.45;5.40;;;;;;;-0.52;64.38;101658.75;1736123;82;27233;-64
2022/01/23 10:24:48;;;;;;;10.63;6.33;;;;;;;-0.55;64.20;101658.83;1773003;80;25813;-64
2022/01/23 10:27:15;;;;;;;11.08;5.28;;;;;;;-0.62;64.46;101653.30;1753371;80;26095;-64
2022/01/23 10:29:45;;;;;;;9.33;4.90;;;;;;;-0.73;64.28;101658.42;1737870;80;25760;-64
2022/01/23 10:32:21;;;;;;;8.70;5.45;;;;;;;-0.79;64.47;101666.52;1726800;82;27527;-62
2022/01/23 10:34:54;;;;;;;12.68;5.00;;;;;;;-0.76;64.87;101665.56;1708578;82;25799;-61
2022/01/23 10:37:41;;;;;;;11.65;6.42;;;;;;;-0.77;65.38;101662.08;1772020;80;34669;-62
2022/01/23 10:40:25;;;;;;;12.10;5.50;;;;;;;-0.75;65.88;101660.23;1729429;82;26813;-63
2022/01/23 10:51:25;;;;;;;7.67;4.67;;;;;;;-0.56;66.25;101662.38;1724065;81;25751;-62
2022/01/23 10:54:11;;;;;;;12.15;5.22;;;;;;;-0.45;66.47;101669.56;1776889;79;26119;-63
2022/01/23 10:57:08;;;;;;;14.65;6.42;;;;;;;-0.39;66.45;101662.77;1772474;78;43088;-63
2022/01/23 10:59:49;;;;;;;9.28;5.75;;;;;;;-0.23;66.51;101669.81;1737763;80;27490;-63
2022/01/23 11:02:23;;;;;;;12.37;6.12;;;;;;;-0.13;66.43;101669.07;1733331;80;25837;-63
2022/01/23 11:04:55;;;;;;;16.67;4.90;;;;;;;-0.19;66.24;101671.91;1737441;80;25786;-64
2022/01/23 11:07:24;;;;;;;7.20;4.55;;;;;;;-0.17;66.48;101673.59;1723384;80;26153;-64
2022/01/23 11:10:07;;;;;;;8.43;4.97;;;;;;;-0.17;66.32;101682.84;1734804;80;25773;-64
2022/01/23 11:18:01;;;;;;;16.00;5.78;;;;;;;-0.13;66.47;101694.67;1782151;78;25837;-62
2022/01/23 11:20:47;;;;;;;9.63;5.22;;;;;;;-0.09;66.78;101690.56;1738135;80;26115;-62
2022/01/23 11:23:30;;;;;;;9.08;5.33;;;;;;;-0.09;66.66;101692.36;1754339;80;25772;-62
2022/01/23 11:26:02;;;;;;;8.73;5.73;;;;;;;-0.09;66.69;101691.89;1745863;80;27488;-63
2022/01/23 11:28:47;;;;;;;8.30;5.22;;;;;;;-0.14;66.62;101693.81;1731404;82;25782;-62
2022/01/23 11:31:18;;;;;;;11.00;5.72;;;;;;;-0.13;66.66;101690.23;1754969;80;26512;-62
2022/01/23 11:33:50;;;;;;;10.53;5.85;;;;;;;-0.22;66.80;101694.03;1752858;80;25908;-63
2022/01/23 11:36:18;;;;;;;13.60;6.08;;;;;;;-0.24;67.27;101687.91;1759854;79;25764;-63
2022/01/23 11:38:47;;;;;;;8.00;4.90;;;;;;;-0.38;67.09;101690.09;1764797;80;27434;-63
2022/01/23 11:55:35;;;;;;;7.80;5.20;;;;;;;-0.50;67.94;101724.34;1751872;81;25816;-63
2022/01/23 11:58:07;;;;;;;11.65;6.30;;;;;;;-0.52;68.21;101725.69;1745783;81;25486;-63
2022/01/23 12:00:39;;;;;;;9.30;5.60;;;;;;;-0.42;68.27;101724.11;1726584;81;26847;-63
2022/01/23 12:03:11;;;;;;;12.25;5.85;;;;;;;-0.39;68.61;101733.30;1726476;83;25791;-64
2022/01/23 12:05:42;;;;;;;13.58;5.72;;;;;;;-0.42;68.15;101727.64;1726150;83;27483;-64
2022/01/23 12:08:20;;;;;;;9.63;6.17;;;;;;;-0.42;68.22;101731.61;1726181;81;25820;-63
2022/01/23 12:16:27;;;;;;;14.47;5.85;;;;;;;-0.38;67.95;101749.58;1721509;83;25745;-63
2022/01/23 12:19:21;;;;;;;8.55;5.37;;;;;;;-0.42;67.90;101754.08;1726068;83;28234;-63
2022/01/23 12:21:55;;;;;;;8.75;4.65;;;;;;;-0.45;68.08;101759.91;1725502;83;25763;-63
2022/01/23 12:24:25;;;;;;;9.08;5.28;;;;;;;-0.54;68.57;101762.33;1724283;80;25776;-63
2022/01/23 12:27:17;;;;;;;6.50;4.42;;;;;;;-0.63;68.56;101764.77;1768902;80;26086;-63
2022/01/23 12:29:46;;;;;;;7.87;4.87;;;;;;;-0.64;68.74;101759.92;1762929;80;25762;-63
2022/01/23 12:32:30;;;;;;;11.20;5.47;;;;;;;-0.63;68.87;101756.84;1743197;82;27491;-63
2022/01/23 12:35:04;;;;;;;11.40;5.95;;;;;;;-0.64;68.68;101769.64;1742529;82;25727;-63
2022/01/23 12:37:59;;;;;;;10.35;5.22;;;;;;;-0.66;68.55;101763.05;1743102;80;25792;-64
2022/01/23 12:40:40;;;;;;;7.58;5.12;;;;;;;-0.61;68.57;101765.58;1741952;82;26117;-62
2022/01/23 12:43:28;;;;;;;9.23;5.72;;;;;;;-0.55;68.57;101756.63;1738001;82;26762;-63
2022/01/23 12:46:05;;;;;;;11.05;6.25;;;;;;;-0.41;68.48;101759.78;1764294;79;27592;-63
2022/01/23 12:48:44;;;;;;;10.63;6.08;;;;;;;-0.33;68.14;101763.52;1765177;79;25752;-64
2022/01/23 12:51:19;;;;;;;8.58;5.50;;;;;;;-0.29;67.69;101766.95;1768427;80;25741;-63
2022/01/23 12:53:54;;;;;;;8.08;5.22;;;;;;;-0.31;67.53;101764.36;1768468;80;26514;-63
2022/01/23 12:56:29;;;;;;;11.80;5.78;;;;;;;-0.39;67.42;101773.80;1773958;79;25722;-63
2022/01/23 12:59:06;;;;;;;9.75;5.37;;;;;;;-0.43;67.67;101769.53;1770817;80;27542;-63
2022/01/23 13:01:29;;;;;;;8.00;5.35;;;;;;;-0.49;67.51;101775.84;1767057;80;25859;-63
2022/01/23 13:04:07;;;;;;;8.55;5.03;;;;;;;-0.52;67.82;101778.55;1770737;81;25790;-62
2022/01/23 13:06:49;;;;;;;8.08;4.97;;;;;;;-0.59;67.82;101788.88;1768913;81;26094;-62
2022/01/23 13:31:51;;;;;;;12.23;6.90;;;;;;;-0.49;66.61;101831.35;1771776;79;26330;-64
2022/01/23 13:34:37;;;;;;;11.70;6.40;;;;;;;-0.46;66.71;101833.05;1730458;81;26782;-63
2022/01/23 13:37:14;;;;;;;14.93;7.03;;;;;;;-0.44;66.27;101839.17;1765282;79;25745;-62
2022/01/23 13:40:00;;;;;;;13.72;8.08;;;;;;;-0.46;66.26;101846.73;1735465;81;27518;-63
2022/01/23 13:59:50;;;;;;;11.73;7.45;;;;;;;-0.55;66.41;101864.56;1764166;79;25739;-63
2022/01/23 14:02:30;;;;;;;15.32;8.85;;;;;;;-0.55;66.50;101869.84;1738060;79;26127;-63
2022/01/23 14:05:08;;;;;;;30.20;15.48;;;;;;;-0.61;66.51;101873.08;1762346;80;25741;-63
2022/01/23 14:07:36;;;;;;;11.83;7.53;;;;;;;-0.73;66.72;101881.70;1764392;80;27485;-63
2022/01/23 14:10:14;;;;;;;17.80;7.62;;;;;;;-0.79;66.96;101889.32;1753604;79;25765;-63
2022/01/23 14:12:41;;;;;;;13.80;7.47;;;;;;;-0.86;66.97;101889.52;1733919;81;25777;-64
2022/01/23 14:15:25;;;;;;;16.52;8.10;;;;;;;-0.95;66.83;101898.07;1802375;79;26762;-63
2022/01/23 14:18:02;;;;;;;11.55;7.40;;;;;;;-1.10;67.08;101894.42;1751584;81;33549;-64
2022/01/23 14:20:32;;;;;;;13.08;8.08;;;;;;;-1.23;67.25;101906.17;1744192;80;28176;-63
2022/01/23 14:23:12;;;;;;;13.83;6.70;;;;;;;-1.32;67.14;101908.09;1767274;79;25617;-63
2022/01/23 14:25:50;;;;;;;15.98;7.65;;;;;;;-1.42;65.24;101921.06;1772056;79;25725;-63
2022/01/23 14:28:23;;;;;;;15.80;8.93;;;;;;;-1.63;64.80;101929.81;1743799;79;26901;-63
2022/01/23 14:30:59;;;;;;;17.92;9.45;;;;;;;-1.83;65.67;101938.53;1759658;79;26846;-64
2022/01/23 14:33:36;;;;;;;16.23;8.75;;;;;;;-1.97;65.99;101940.98;1765165;80;27415;-64
2022/01/23 14:36:28;;;;;;;17.52;9.93;;;;;;;-2.12;65.46;101943.42;1756993;81;25848;-64
2022/01/23 14:39:03;;;;;;;24.63;10.15;;;;;;;-2.27;65.88;101951.13;1766648;79;25659;-64
2022/01/23 14:41:34;;;;;;;21.77;12.55;;;;;;;-2.37;65.96;101957.44;1772303;79;26077;-65
2022/01/23 14:44:05;;;;;;;18.95;10.35;;;;;;;-2.45;66.16;101960.64;1772282;79;25504;-64
2022/01/23 14:46:34;;;;;;;21.10;9.90;;;;;;;-2.55;66.03;101977.05;1738308;79;27526;-65
2022/01/23 14:49:10;;;;;;;19.15;10.28;;;;;;;-2.64;66.00;101974.08;1760703;79;25816;-62
2022/01/23 14:51:34;;;;;;;20.25;10.15;;;;;;;-2.70;66.24;101976.38;1755254;79;25744;-64
2022/01/23 14:54:03;;;;;;;16.90;9.48;;;;;;;-2.77;65.97;101985.70;1770329;79;26100;-64
2022/01/23 14:56:32;;;;;;;19.55;9.83;;;;;;;-2.84;66.29;101988.42;1753945;79;26332;-64
2022/01/23 14:58:59;;;;;;;16.50;9.10;;;;;;;-2.89;66.42;101990.69;1769129;79;27465;-64
2022/01/23 15:01:26;;;;;;;18.23;10.45;;;;;;;-2.94;66.66;102007.86;1783984;79;27242;-64
2022/01/23 15:03:53;;;;;;;19.82;10.95;;;;;;;-2.96;66.52;102012.27;1794758;79;25800;-64
2022/01/23 15:06:23;;;;;;;24.10;12.45;;;;;;;-3.02;66.86;102013.20;1796171;78;26163;-64
2022/01/23 15:08:50;;;;;;;21.35;11.48;;;;;;;-3.05;67.08;102013.23;1782026;79;25773;-64
2022/01/23 15:11:17;;;;;;;22.98;10.25;;;;;;;-3.11;66.80;102019.89;1781041;80;27580;-62
2022/01/23 15:13:44;;;;;;;20.62;9.35;;;;;;;-3.16;66.97;102037.05;1792675;78;25763;-63
2022/01/23 15:16:12;;;;;;;22.60;11.53;;;;;;;-3.24;66.41;102040.22;1793255;80;25749;-63
2022/01/23 15:18:39;;;;;;;20.23;11.50;;;;;;;-3.28;66.54;102053.42;1793134;80;26171;-64
2022/01/23 15:21:14;;;;;;;30.80;15.72;;;;;;;-3.31;66.59;102059.59;1793732;80;25793;-63